Aviation Digital Data Service (ADDS)

Output produced by METARs form (0148 UTC 16 January 2019)
found at http://www.aviationweather.gov/metar/data/
 
LIEA 160120Z VRB02KT CAVOK 05/04 Q1021
TAF LIEA 152300Z 1600/1624 VRB05KT CAVOK 
     BECMG 1606/1608 16010KT
       
LIBA 152155Z 26002KT CAVOK 01/M00 Q1022 RMK SKC VIS MIN 9999 WIND THR11 27002KT WIND THR29 /////KT BLU
TAF LIBA 152000Z 1521/1606 27005KT CAVOK
       
TAF LIMW 151400Z 1515/1524 VRB05KT CAVOK
       
LIPA 152155Z 03007KT CAVOK M00/M03 Q1019 RMK SKC VIS MIN 9999 WIND THR05 04005KT WIND THR23 05006KT A3011 BLU
TAF LIPA 152000Z 1521/1606 05005KT CAVOK
       
LIME 160120Z 35006KT CAVOK 03/M06 Q1019 NOSIG
TAF LIME 152300Z 1600/1624 VRB05KT CAVOK 
     TEMPO 1615/1618 DZ BKN014
       
LIPE 160120Z 27004KT CAVOK 01/M05 Q1020
TAF LIPE 152300Z 1600/1624 22008KT CAVOK
       
LIPB 152150Z VRB01KT CAVOK 01/M04 Q1020
TAF LIPB 151700Z 1518/1618 VRB05KT CAVOK
       
TAF LIMN 151700Z 1518/1603 24005KT CAVOK
       
LIRN 160120Z 05002KT CAVOK 02/M03 Q1024 NOSIG
TAF LIRN 152300Z 1600/1624 04007KT 9999 SCT040 
     BECMG 1609/1611 17010KT
       
LIBR 160120Z 36007KT CAVOK 08/M03 Q1022
TAF LIBR 152300Z 1600/1624 01013KT CAVOK 
     BECMG 1600/1603 VRB05KT
       
LICC 160120Z 25003KT 210V280 CAVOK 03/M00 Q1023
TAF LICC 152300Z 1600/1624 24008KT 9999 SCT040
       
LIPC 160055Z 22003KT CAVOK M00/M03 Q1019 RMK SKC VIS MIN 9999 WIND THR11 /////KT WIND THR29 23002KT BLU
TAF LIPC 152300Z 1600/1609 26008KT CAVOK
       
LIRA 160120Z 14005KT CAVOK 06/03 Q1023
TAF LIRA 152300Z 1600/1624 16008KT 9999 SCT040
       
TAF LIBC 151700Z 1518/1618 36011KT 9999 SCT030 
     BECMG 1608/1610 20010KT
       
LIED 160055Z 35002KT CAVOK 03/02 Q1021 RMK SKC VIS MIN 9999 WIND THR35 /////KT WIND THR17 /////KT BLU
LIEE 160120Z 32004KT CAVOK 04/03 Q1023
TAF LIEE 152300Z 1600/1624 VRB05KT CAVOK 
     BECMG 1608/1610 16010KT
       
LIPY 152250Z 17004KT CAVOK 03/M01 Q1020
TAF LIPY 151700Z 1518/1618 VRB06KT CAVOK
       
LIRF 160120Z 08004KT CAVOK 01/M01 Q1023 NOSIG
TAF LIRF 152300Z 1600/1706 11006KT 9999 SCT030 
     BECMG 1607/1609 17012KT
       
LIMJ 160120Z 16009KT 9999 BKN030 13/07 Q1020
TAF LIMJ 152300Z 1600/1624 17014KT CAVOK 
     TEMPO 1612/1618 RA BKN014
       
LIPL 160055Z 04001KT CAVOK M01/M01 Q1019 RMK SKC VIS MIN 9999 WIND THR31 02002KT WIND THR13 36001KT BLU
TAF LIPL 152300Z 1600/1609 30005KT CAVOK 
     PROB30 
     TEMPO 1602/1606 5000 BR
       
LIBV 160055Z 26004KT CAVOK 01/M02 Q1021 RMK SKC VIS MIN 9999 WIND THR32 29004KT WIND THR14 25005KT BLU
TAF LIBV 152300Z 1600/1609 27007KT CAVOK
       
LIRM 160055Z /////KT CAVOK 00/M01 Q1023
TAF LIRM 152300Z 1600/1609 VRB03KT CAVOK
       
LIRS 160055Z 05005KT CAVOK 00/M02 Q1021 RMK SKC VIS MIN 9999 WIND THR03 05006KT WIND THR21 06003KT BLU
TAF LIRS 152300Z 1600/1609 VRB03KT CAVOK
       
TAF LIBG 151700Z 1518/1603 35012KT 9999 FEW030 
     BECMG 1520/1522 VRB05KT
       
TAF LIRG 151400Z 1515/1524 34010KT CAVOK
       
LIPS 160055Z 05003KT 9999 SCT070 02/01 Q1019 RMK SCT VIS MIN 9999 WIND THR26 31003KT WIND THR08 04003KT BLU
TAF LIPS 152300Z 1600/1609 05005KT CAVOK
       
LICA 160050Z 08007KT 9999 FEW020 M01/M03 Q1024
TAF LICA 152300Z 1600/1624 VRB06KT 9999 FEW030 
     BECMG 1610/1612 26010KT
       
LICD 152050Z 35013KT CAVOK 14/06 Q1022
TAF LICD 151700Z 1518/1618 36016G26KT 9999 SCT020 
     BECMG 1600/1603 09012KT
       
TAF LIRL 151400Z 1515/1524 02008KT CAVOK
       
LIBN 160055Z 30005KT CAVOK 00/M03 Q1022 RMK SKC VIS MIN 9999 WIND THR14 30004KT WIND THR32 31006KT BLU
TAF LIBN 151400Z 1515/1524 36020KT CAVOK 
     TEMPO 1515/1518 36020G33KT 9999 FEW035
       
LIMZ 151950Z 22006KT CAVOK M02/M04 Q1019
TAF LIMZ 151700Z 1518/1618 VRB05KT CAVOK
       
LIML 160120Z 19001KT CAVOK M01/M04 Q1019 NOSIG
TAF LIML 152300Z 1600/1624 VRB05KT CAVOK 
     TEMPO 1615/1618 DZ BKN014
       
LIMC 160120Z 01010KT CAVOK M00/M05 Q1019 NOSIG
TAF LIMC 152300Z 1600/1706 VRB05KT CAVOK 
     TEMPO 1615/1624 DZ BKN014
       
LIPO 160050Z 05004KT CAVOK 01/M04 Q1019
TAF LIPO 152300Z 1600/1624 VRB05KT CAVOK
       
LIEO 160120Z VRB02KT CAVOK 01/01 Q1022
TAF LIEO 152300Z 1600/1624 23008KT CAVOK
       
LICJ 160120Z 07010KT CAVOK 09/M01 Q1023
TAF LICJ 152300Z 1600/1624 07010KT 9999 FEW030 
     BECMG 1600/1602 18008KT
       
LIBD 160120Z 24006KT 200V270 CAVOK 02/M03 Q1022
TAF LIBD 152300Z 1600/1624 26008KT CAVOK
       
TAF LICG 151700Z 1518/1603 06012KT 9999 FEW020
       
LIMP 151950Z 24002KT CAVOK M00/M05 Q1019
TAF LIMP 151700Z 1518/1618 VRB05KT CAVOK
       
LIRQ 160120Z VRB02KT 9999 BKN040 02/M02 Q1022
TAF LIRQ 152300Z 1600/1624 VRB05KT 9999 FEW040
       
LIRZ 160050Z AUTO 35006KT 9999 NCD M03/M05 Q1023
TAF LIRZ 152300Z 1600/1624 VRB05KT 9999 FEW040 
     BECMG 1610/1612 21010KT
       
LIBP 160050Z AUTO 20006KT 9999 NCD M02/M03 Q1021
TAF LIBP 152300Z 1600/1624 VRB05KT CAVOK
       
LIRP 160115Z 12003KT 090V170 9999 SCT030 SCT045 03/02 Q1022 NOSIG
TAF LIRP 152300Z 1600/1624 11008KT 9999 SCT030 
     PROB30 1603/1607 5000 BR 
     BECMG 1615/1618 9999 BKN050
       
LIRE 160055Z 08007KT 9999 FEW025 09/04 Q1023 RMK FEW VIS MIN 9999 WIND THR13 10003KT WIND THR31 /////KT BLU
TAF LIRE 152300Z 1600/1609 08006KT 9999 SCT030
       
LICR 152250Z 04006KT CAVOK 06/M02 Q1023
TAF LICR 151700Z 1518/1618 01015KT 9999 SCT020 
     BECMG 1612/1615 18010KT
       
LIPR 160120Z AUTO 18006KT 9999 NCD 04/M04 Q1020
TAF LIPR 152300Z 1600/1609 24008KT CAVOK
       
LIPI 152155Z /////KT 9999 FEW110 M01/M05 Q1020 RMK BKN SCT200 VIS MIN 9999 WIND THR06 03006KT WIND THR24 02004KT BLU
TAF LIPI 152000Z 1521/1606 02005KT CAVOK 
     TEMPO 1521/1601 9999 SCT100
       
LIPQ 160120Z AUTO 02002KT 9999 BKN035/// BKN240/// 01/M03 Q1019
TAF LIPQ 152300Z 1600/1624 VRB05KT CAVOK
       
LICZ 160055Z 27007KT CAVOK 03/03 Q1023 RMK SKC VIS MIN 9999 WIND THR28 /////KT WIND THR10 27006KT A3023 BLU
TAF LICZ 152300Z 1600/1609 28005KT CAVOK
       
LIMF 160120Z 30004KT CAVOK 01/M05 Q1019
TAF LIMF 152300Z 1600/1624 VRB05KT CAVOK
       
LICT 160055Z 12005KT CAVOK 04/04 Q1023 RMK SKC VIS MIN 9999 WIND THR13 10005KT BLU
TAF LICT 152300Z 1600/1609 11005KT CAVOK
       
LIPH 160120Z AUTO VRB01KT 9999 BKN220/// 01/M03 Q1019
TAF LIPH 152300Z 1600/1624 VRB05KT CAVOK
       
TAF LIRU 151400Z 1515/1524 VRB06KT 9999 FEW030
       
LIPZ 160120Z 36005KT CAVOK 01/M03 Q1020 NOSIG
TAF LIPZ 152300Z 1600/1706 VRB06KT CAVOK 
     TEMPO 1606/1608 4500 BR
       
LIPX 160120Z 28004KT CAVOK M01/M04 Q1019
TAF LIPX 152300Z 1600/1609 35005KT CAVOK
       
TAF LIRV 151400Z 1515/1524 03010KT CAVOK